createdAt,value
2023-02-14T00:00:11.610Z,102202.91
2023-02-14T00:05:13.730Z,102202.50
2023-02-14T00:10:16.339Z,102179.06
2023-02-14T00:15:25.219Z,102206.19
2023-02-14T00:20:28.537Z,102202.72
2023-02-14T00:25:30.679Z,102213.28
2023-02-14T00:30:32.947Z,102197.62
2023-02-14T00:35:38.284Z,102194.09
2023-02-14T00:40:40.413Z,102190.59
2023-02-14T00:45:42.559Z,102185.53
2023-02-14T00:50:46.297Z,102223.63
2023-02-14T00:55:48.428Z,102197.19
2023-02-14T01:00:50.652Z,102222.94
2023-02-14T01:05:52.946Z,102203.94
2023-02-14T01:10:55.041Z,102202.38
2023-02-14T01:15:57.211Z,102185.78
2023-02-14T01:21:13.716Z,102190.13
2023-02-14T01:26:18.397Z,102184.78
2023-02-14T01:31:29.233Z,102159.37
2023-02-14T01:36:39.735Z,102171.50
2023-02-14T01:41:44.273Z,102176.19
2023-02-14T01:46:46.572Z,102168.56
2023-02-14T01:51:59.515Z,102174.25
2023-02-14T01:57:06.757Z,102177.69
2023-02-14T02:02:10.169Z,102173.16
2023-02-14T02:07:20.881Z,102149.81
2023-02-14T02:12:23.127Z,102161.94
2023-02-14T02:17:43.680Z,102164.06
2023-02-14T02:23:19.705Z,102146.44
2023-02-14T02:28:24.839Z,102137.75
2023-02-14T02:33:29.867Z,102123.22
2023-02-14T02:38:55.166Z,102148.69
2023-02-14T02:44:12.300Z,102124.09
2023-02-14T02:49:14.413Z,102129.22
2023-02-14T02:54:31.338Z,102116.47
2023-02-14T02:59:39.347Z,102141.84
2023-02-14T03:04:54.216Z,102136.78
2023-02-14T03:09:59.489Z,102142.09
2023-02-14T03:15:22.528Z,102142.09
2023-02-14T03:20:46.744Z,102141.78
2023-02-14T03:26:13.825Z,102134.06
2023-02-14T03:31:53.836Z,102142.78
2023-02-14T03:37:13.977Z,102144.94
2023-02-14T03:42:24.881Z,102112.84
2023-02-14T03:47:31.858Z,102142.22
2023-02-14T03:52:36.252Z,102139.31
2023-02-14T03:57:42.011Z,102145.22
2023-02-14T04:02:53.280Z,102151.25
2023-02-14T04:07:58.216Z,102133.47
2023-02-14T04:13:00.320Z,102148.72
2023-02-14T04:18:21.334Z,102144.69
2023-02-14T04:23:25.842Z,102122.44
2023-02-14T04:28:27.932Z,102142.56
2023-02-14T04:33:30.235Z,102144.34
2023-02-14T04:38:33.093Z,102149.09
2023-02-14T04:43:35.196Z,102139.31
2023-02-14T04:48:37.313Z,102149.72
2023-02-14T04:53:40.500Z,102128.00
2023-02-14T04:58:42.655Z,102143.25
2023-02-14T05:03:44.847Z,102138.84
2023-02-14T05:08:46.934Z,102145.13
2023-02-14T05:13:49.384Z,102136.50
2023-02-14T05:18:51.665Z,102141.75
2023-02-14T05:23:53.826Z,102142.81
2023-02-14T05:28:56.369Z,102138.91
2023-02-14T05:33:58.679Z,102130.94
2023-02-14T05:39:00.789Z,102146.19
2023-02-14T05:44:04.045Z,102145.66
2023-02-14T05:49:06.231Z,102143.66
2023-02-14T05:54:10.598Z,102139.56
2023-02-14T05:59:14.606Z,102153.97
2023-02-14T06:04:16.776Z,102153.75
2023-02-14T06:09:19.910Z,102166.97
2023-02-14T06:14:22.192Z,102158.87
2023-02-14T06:19:24.262Z,102167.69
2023-02-14T06:24:26.417Z,102167.34
2023-02-14T06:29:28.704Z,102174.59
2023-02-14T06:34:30.953Z,102189.50
2023-02-14T06:39:33.440Z,102193.22
2023-02-14T06:44:35.678Z,102212.50
2023-02-14T06:49:37.792Z,102216.22
2023-02-14T06:54:39.899Z,102197.28
2023-02-14T06:59:41.965Z,102213.34
2023-02-14T07:04:44.125Z,102220.44
2023-02-14T07:09:46.792Z,102222.47
2023-02-14T07:14:48.897Z,102231.75
2023-02-14T07:19:51.016Z,102225.44
2023-02-14T07:24:53.104Z,102229.09
2023-02-14T07:29:55.257Z,102220.63
2023-02-14T07:34:57.424Z,102221.06
2023-02-14T07:39:59.794Z,102242.09
2023-02-14T07:45:20.786Z,102223.00
2023-02-14T07:50:24.055Z,102227.66
2023-02-14T07:55:26.223Z,102245.88
2023-02-14T08:00:28.396Z,102243.31
2023-02-14T08:05:30.497Z,102246.97
2023-02-14T08:10:33.252Z,102248.97
2023-02-14T08:15:54.310Z,102247.25
2023-02-14T08:20:56.691Z,102227.19
2023-02-14T08:25:58.925Z,102228.94
2023-02-14T08:31:03.363Z,102248.19
2023-02-14T08:36:06.104Z,102250.87
2023-02-14T08:41:09.302Z,102254.97
2023-02-14T08:46:12.616Z,102236.19
2023-02-14T08:51:15.044Z,102247.56
2023-02-14T08:56:17.930Z,102252.12
2023-02-14T09:01:20.282Z,102248.25
2023-02-14T09:06:22.576Z,102229.47
2023-02-14T09:11:25.657Z,102246.84
2023-02-14T09:16:28.077Z,102231.62
2023-02-14T09:21:30.594Z,102244.38
2023-02-14T09:26:33.042Z,102243.53
2023-02-14T09:31:35.191Z,102246.66
2023-02-14T09:36:37.387Z,102242.50
2023-02-14T09:42:09.867Z,102225.81
2023-02-14T09:47:37.949Z,102230.91
2023-02-14T09:52:40.123Z,102227.53
2023-02-14T09:58:11.043Z,102233.44
2023-02-14T10:03:38.291Z,102242.00
2023-02-14T10:08:54.717Z,102224.50
2023-02-14T10:14:03.957Z,102232.44
2023-02-14T10:19:26.400Z,102214.06
2023-02-14T10:24:44.368Z,102219.94
2023-02-14T10:29:46.617Z,102198.38
2023-02-14T10:34:51.418Z,102209.78
2023-02-14T10:39:56.419Z,102194.78
2023-02-14T10:44:58.804Z,102192.06
2023-02-14T10:50:37.322Z,102180.53
2023-02-14T10:56:03.793Z,102190.88
2023-02-14T11:01:16.146Z,102171.09
2023-02-14T11:06:18.280Z,102175.00
2023-02-14T11:11:32.085Z,102161.41
2023-02-14T11:16:37.180Z,102164.47
2023-02-14T11:21:40.529Z,102169.00
2023-02-14T11:26:47.020Z,102175.00
2023-02-14T11:31:49.462Z,102161.28
2023-02-14T11:36:52.132Z,102164.91
2023-02-14T11:42:00.926Z,102159.69
2023-02-14T11:47:41.699Z,102166.00
2023-02-14T11:52:52.483Z,102147.56
2023-02-14T11:57:58.679Z,102141.72
2023-02-14T12:03:06.424Z,102147.34
2023-02-14T12:08:08.744Z,102148.37
2023-02-14T12:13:10.791Z,102148.56
2023-02-14T12:18:46.136Z,102141.94
2023-02-14T12:24:02.776Z,102120.72
2023-02-14T12:29:23.253Z,102120.97
2023-02-14T12:34:25.418Z,102111.19
2023-02-14T12:39:52.037Z,102115.13
2023-02-14T12:45:17.639Z,102116.75
2023-02-14T12:50:35.128Z,102105.34
2023-02-14T12:55:52.604Z,102102.84
2023-02-14T13:01:06.924Z,102093.44
2023-02-14T13:06:53.592Z,102087.84
2023-02-14T13:12:32.564Z,102086.19
2023-02-14T13:17:52.724Z,102074.25
2023-02-14T13:22:57.747Z,102076.16
2023-02-14T13:28:04.133Z,102072.41
2023-02-14T13:33:24.367Z,102075.22
2023-02-14T13:38:28.292Z,102085.00
2023-02-14T13:43:50.096Z,102082.81
2023-02-14T13:49:18.392Z,102067.84
2023-02-14T13:54:45.025Z,102065.41
2023-02-14T13:59:47.130Z,102054.53
2023-02-14T14:04:49.353Z,102058.06
2023-02-14T14:09:51.400Z,102062.16
2023-02-14T14:15:13.890Z,102067.41
2023-02-14T14:20:15.928Z,102064.00
2023-02-14T14:25:41.608Z,102066.09
2023-02-14T14:30:44.909Z,102068.66
2023-02-14T14:36:10.274Z,102062.00
2023-02-14T14:41:12.497Z,102056.16
2023-02-14T14:46:16.337Z,102069.88
2023-02-14T14:51:20.154Z,102055.09
2023-02-14T14:56:33.422Z,102055.38
2023-02-14T15:01:40.036Z,102055.53
2023-02-14T15:06:42.376Z,102048.84
2023-02-14T15:12:04.823Z,102071.09
2023-02-14T15:17:12.871Z,102067.84
2023-02-14T15:22:29.724Z,102056.09
2023-02-14T15:27:32.444Z,102067.50
2023-02-14T15:32:36.659Z,102063.66
2023-02-14T15:37:38.936Z,102065.09
2023-02-14T15:42:43.689Z,102066.12
2023-02-14T15:47:49.317Z,102054.66
2023-02-14T15:52:56.797Z,102070.53
2023-02-14T15:58:06.060Z,102083.16
2023-02-14T16:03:12.468Z,102084.37
2023-02-14T16:08:54.502Z,102080.94
2023-02-14T16:13:57.186Z,102091.69
2023-02-14T16:18:59.344Z,102083.56
2023-02-14T16:24:07.421Z,102086.56
2023-02-14T16:29:16.177Z,102088.53
2023-02-14T16:34:18.529Z,102114.44
2023-02-14T16:39:25.052Z,102114.03
2023-02-14T16:44:27.212Z,102122.03
2023-02-14T16:49:30.158Z,102100.78
2023-02-14T16:54:32.467Z,102122.03
2023-02-14T16:59:34.586Z,102122.22
2023-02-14T17:04:36.735Z,102123.06
2023-02-14T17:09:48.569Z,102129.97
2023-02-14T17:14:55.756Z,102139.00
2023-02-14T17:19:58.689Z,102150.34
2023-02-14T17:25:01.176Z,102140.66
2023-02-14T17:30:04.444Z,102153.38
2023-02-14T17:35:08.974Z,102147.69
2023-02-14T17:40:12.062Z,102143.69
2023-02-14T17:45:14.256Z,102150.84
2023-02-14T17:50:18.130Z,102139.34
2023-02-14T17:55:20.937Z,102154.69
2023-02-14T18:00:23.902Z,102133.81
2023-02-14T18:05:26.742Z,102142.34
2023-02-14T18:10:28.925Z,102142.50
2023-02-14T18:15:31.003Z,102144.03
2023-02-14T18:20:34.217Z,102144.88
2023-02-14T18:25:37.645Z,102131.81
2023-02-14T18:30:39.828Z,102130.12
2023-02-14T18:35:42.056Z,102130.22
2023-02-14T18:40:44.245Z,102121.94
2023-02-14T18:45:46.410Z,102128.97
2023-02-14T18:50:48.601Z,102122.94
2023-02-14T18:55:51.043Z,102134.47
2023-02-14T19:00:54.576Z,102132.47
2023-02-14T19:05:59.839Z,102134.13
2023-02-14T19:11:02.572Z,102130.06
2023-02-14T19:16:13.563Z,102111.22
2023-02-14T19:21:24.492Z,102140.47
2023-02-14T19:26:32.855Z,102142.63
2023-02-14T19:31:37.567Z,102124.09
2023-02-14T19:36:39.791Z,102116.19
2023-02-14T19:41:42.491Z,102129.38
2023-02-14T19:46:46.395Z,102132.19
2023-02-14T19:51:51.353Z,102137.56
2023-02-14T19:56:55.440Z,102133.47
2023-02-14T20:01:58.484Z,102137.12
2023-02-14T20:07:01.895Z,102132.34
2023-02-14T20:12:04.812Z,102130.06
2023-02-14T20:17:07.818Z,102158.66
2023-02-14T20:22:11.184Z,102148.09
2023-02-14T20:27:13.464Z,102143.22
2023-02-14T20:32:16.297Z,102147.44
2023-02-14T20:37:18.442Z,102146.31
2023-02-14T20:42:20.567Z,102138.53
2023-02-14T20:47:22.674Z,102143.03
2023-02-14T20:52:27.029Z,102153.44
2023-02-14T20:57:29.777Z,102137.41
2023-02-14T21:02:31.937Z,102143.19
2023-02-14T21:07:34.176Z,102149.19
2023-02-14T21:12:38.231Z,102131.94
2023-02-14T21:17:40.568Z,102133.91
2023-02-14T21:22:42.695Z,102139.16
2023-02-14T21:27:45.396Z,102140.66
2023-02-14T21:32:47.454Z,102155.16
2023-02-14T21:37:49.584Z,102156.16
2023-02-14T21:42:51.723Z,102082.56
2023-02-14T21:48:12.453Z,102142.22
2023-02-14T21:53:14.591Z,102156.47
2023-02-14T21:58:16.844Z,102160.81
2023-02-14T22:03:18.978Z,102159.22
2023-02-14T22:08:21.105Z,102144.81
2023-02-14T22:13:23.679Z,102166.03
2023-02-14T22:18:25.821Z,102159.28
2023-02-14T22:23:31.289Z,102164.16
2023-02-14T22:28:33.806Z,102177.50
2023-02-14T22:33:37.821Z,102179.50
2023-02-14T22:38:40.773Z,102172.16
2023-02-14T22:43:43.833Z,102172.16
2023-02-14T22:48:46.977Z,102177.06
2023-02-14T22:53:51.169Z,102172.81
2023-02-14T22:59:01.796Z,102175.94
2023-02-14T23:04:05.015Z,102175.94
2023-02-14T23:09:08.692Z,102159.22
2023-02-14T23:14:33.816Z,102178.34
2023-02-14T23:19:55.593Z,102176.97
2023-02-14T23:25:01.903Z,102179.22
2023-02-14T23:30:08.926Z,102169.91
2023-02-14T23:35:11.351Z,102170.97
2023-02-14T23:40:13.698Z,102150.53
2023-02-14T23:45:34.523Z,102156.81
2023-02-14T23:50:36.714Z,102161.22
2023-02-14T23:55:38.784Z,102153.13
